Time;durP1;ratioP1;P1;durP2;ratioP2;P2;SDS_P1;SDS_P2;PMS_P1;PMS_P2;Temp;Humidity;BMP_temperature;BMP_pressure;BME280_temperature;BME280_humidity;BME280_pressure;Samples;Min_cycle;Max_cycle;Signal;HPM_P1;HPM_P2
2022/06/26 00:04:52;;;;;;;;;;;;;;;19.04;59.27;97735.75;5004918;28;20023;-58
2022/06/26 00:07:20;;;;;;;;;;;;;;;18.96;59.47;97742.31;5005367;28;19929;-57
2022/06/26 00:09:49;;;;;;;;;;;;;;;18.75;60.17;97740.84;5001748;28;20385;-58
2022/06/26 00:12:17;;;;;;;;;;;;;;;18.88;59.93;97751.66;5007363;28;20009;-57
2022/06/26 00:14:45;;;;;;;;;;;;;;;18.92;59.90;97749.75;5004768;28;19938;-60
2022/06/26 00:17:16;;;;;;;;;;;;;;;18.95;59.67;97758.03;5003199;28;20005;-58
2022/06/26 00:19:48;;;;;;;;;;;;;;;18.88;60.12;97760.69;5004772;28;20282;-60
2022/06/26 00:22:18;;;;;;;;;;;;;;;18.67;60.53;97761.13;5007548;28;20256;-59
2022/06/26 00:24:46;;;;;;;;;;;;;;;18.62;60.80;97755.91;5002466;28;19937;-60
2022/06/26 00:27:14;;;;;;;;;;;;;;;18.68;60.53;97748.97;5001568;28;20340;-55
2022/06/26 00:29:42;;;;;;;;;;;;;;;18.72;60.58;97749.03;4999064;28;20703;-59
2022/06/26 00:32:10;;;;;;;;;;;;;;;18.73;60.63;97756.91;5004807;28;19937;-61
2022/06/26 00:34:38;;;;;;;;;;;;;;;18.66;60.69;97745.78;5004905;28;19964;-60
2022/06/26 00:37:07;;;;;;;;;;;;;;;18.65;60.78;97759.91;5004680;28;19961;-60
2022/06/26 00:39:36;;;;;;;;;;;;;;;18.57;60.78;97758.97;4998971;28;19957;-60
2022/06/26 00:42:05;;;;;;;;;;;;;;;18.53;60.96;97761.66;4988712;28;19926;-61
2022/06/26 00:44:36;;;;;;;;;;;;;;;18.54;61.15;97768.78;4983517;28;19963;-60
2022/06/26 00:47:05;;;;;;;;;;;;;;;18.57;60.90;97773.53;4981991;28;19936;-60
2022/06/26 00:49:32;;;;;;;;;;;;;;;18.52;61.18;97773.03;4984892;28;20216;-59
2022/06/26 00:52:01;;;;;;;;;;;;;;;18.57;60.96;97769.97;4985732;28;20028;-60
2022/06/26 00:54:33;;;;;;;;;;;;;;;18.52;61.03;97776.59;4984072;28;20066;-60
2022/06/26 00:57:03;;;;;;;;;;;;;;;18.45;61.38;97775.69;4985742;28;19961;-59
2022/06/26 00:59:31;;;;;;;;;;;;;;;18.38;61.56;97772.81;4985121;28;20277;-60
2022/06/26 01:01:59;;;;;;;;;;;;;;;18.38;61.33;97781.84;4985145;28;19930;-59
2022/06/26 01:04:28;;;;;;;;;;;;;;;18.52;60.86;97778.53;4963278;28;19925;-59
2022/06/26 01:06:56;;;;;;;;;;;;;;;18.46;61.06;97780.81;4968309;28;20017;-60
2022/06/26 01:09:48;;;;;;;;;;;;;;;18.41;61.32;97788.56;4983412;28;19925;-60
2022/06/26 01:12:17;;;;;;;;;;;;;;;18.42;61.14;97784.66;4963731;28;19957;-58
2022/06/26 01:14:46;;;;;;;;;;;;;;;18.35;61.61;97779.03;4979976;28;19933;-60
2022/06/26 01:17:16;;;;;;;;;;;;;;;18.35;61.42;97776.28;4964558;28;20468;-60
2022/06/26 01:19:44;;;;;;;;;;;;;;;18.43;60.96;97776.06;4967274;28;19929;-57
2022/06/26 01:22:12;;;;;;;;;;;;;;;18.34;61.41;97772.72;4963005;28;20227;-59
2022/06/26 01:24:42;;;;;;;;;;;;;;;18.30;61.61;97771.88;4985131;28;19980;-57
2022/06/26 01:27:11;;;;;;;;;;;;;;;18.15;62.36;97781.81;4979749;28;20009;-60
2022/06/26 01:29:39;;;;;;;;;;;;;;;18.19;62.21;97785.41;4966075;28;20372;-60
2022/06/26 01:32:07;;;;;;;;;;;;;;;18.16;62.16;97780.63;4964678;28;19992;-60
2022/06/26 01:34:36;;;;;;;;;;;;;;;18.14;62.36;97774.72;4978461;28;19937;-60
2022/06/26 01:37:06;;;;;;;;;;;;;;;18.15;62.09;97790.06;4979285;28;19926;-60
2022/06/26 01:39:35;;;;;;;;;;;;;;;18.13;62.12;97795.13;4964206;28;19930;-59
2022/06/26 01:42:05;;;;;;;;;;;;;;;18.06;62.34;97792.25;4971450;28;19952;-60
2022/06/26 01:47:25;;;;;;;;;;;;;;;18.07;62.62;97796.59;4982294;28;19948;-60
2022/06/26 01:49:54;;;;;;;;;;;;;;;18.06;62.70;97808.75;4981288;28;20279;-60
2022/06/26 01:52:22;;;;;;;;;;;;;;;18.14;62.33;97793.97;4969523;28;19933;-60
2022/06/26 01:54:50;;;;;;;;;;;;;;;18.02;62.57;97799.63;4980634;28;19926;-60
2022/06/26 01:57:21;;;;;;;;;;;;;;;18.06;62.46;97801.28;4983688;28;19933;-60
2022/06/26 01:59:51;;;;;;;;;;;;;;;18.02;62.59;97799.63;4967773;28;20031;-58
2022/06/26 02:02:23;;;;;;;;;;;;;;;18.11;62.32;97789.22;4972881;28;19930;-57
2022/06/26 02:04:55;;;;;;;;;;;;;;;17.99;62.82;97789.34;4983555;28;19929;-59
2022/06/26 02:07:24;;;;;;;;;;;;;;;17.98;62.85;97787.75;4983594;28;19925;-60
2022/06/26 02:15:36;;;;;;;;;;;;;;;17.81;63.45;97800.00;4983898;28;20012;-60
2022/06/26 02:18:04;;;;;;;;;;;;;;;17.79;63.48;97802.31;4968151;28;19937;-56
2022/06/26 02:20:32;;;;;;;;;;;;;;;17.81;63.46;97800.00;4984819;28;19980;-58
2022/06/26 02:23:02;;;;;;;;;;;;;;;17.74;63.47;97797.91;4969167;28;20400;-60
2022/06/26 02:25:30;;;;;;;;;;;;;;;17.77;63.24;97804.63;4975765;28;19936;-60
2022/06/26 02:27:59;;;;;;;;;;;;;;;17.82;63.11;97806.28;4986612;28;19927;-60
2022/06/26 02:30:29;;;;;;;;;;;;;;;17.77;63.19;97810.09;4982445;28;19953;-58
2022/06/26 02:32:56;;;;;;;;;;;;;;;17.76;63.27;97811.28;4986126;28;20386;-57
2022/06/26 02:35:25;;;;;;;;;;;;;;;17.76;63.26;97812.06;4982912;28;20025;-61
2022/06/26 02:37:54;;;;;;;;;;;;;;;17.70;63.64;97812.69;4987942;28;19999;-58
2022/06/26 02:40:23;;;;;;;;;;;;;;;17.72;63.44;97813.13;4984479;28;19953;-55
2022/06/26 02:42:53;;;;;;;;;;;;;;;17.73;63.29;97810.03;4982004;28;19937;-54
2022/06/26 02:45:23;;;;;;;;;;;;;;;17.72;63.30;97802.94;4986116;28;19973;-60
2022/06/26 02:47:52;;;;;;;;;;;;;;;17.77;63.15;97810.91;4983598;28;19937;-60
2022/06/26 02:50:21;;;;;;;;;;;;;;;17.67;63.56;97805.94;4970069;28;19965;-59
2022/06/26 02:52:49;;;;;;;;;;;;;;;17.66;63.43;97817.31;4983333;28;19934;-60
2022/06/26 02:55:18;;;;;;;;;;;;;;;17.39;64.51;97813.56;4984224;28;20033;-60
2022/06/26 02:57:45;;;;;;;;;;;;;;;17.38;64.53;97817.47;4971342;28;20033;-59
2022/06/26 03:00:15;;;;;;;;;;;;;;;17.38;64.51;97812.78;4981376;28;20258;-60
2022/06/26 03:02:47;;;;;;;;;;;;;;;17.37;64.39;97816.69;4967491;28;19948;-60
2022/06/26 03:05:17;;;;;;;;;;;;;;;17.37;64.30;97818.66;4983031;28;19948;-60
2022/06/26 03:07:45;;;;;;;;;;;;;;;17.35;64.10;97823.69;4984470;28;19926;-60
2022/06/26 03:10:13;;;;;;;;;;;;;;;17.29;64.29;97825.91;4976034;28;20349;-60
2022/06/26 03:12:43;;;;;;;;;;;;;;;17.20;64.36;97819.81;4984386;28;20202;-60
2022/06/26 03:15:12;;;;;;;;;;;;;;;17.09;64.79;97819.56;4970140;28;20232;-60
2022/06/26 03:17:41;;;;;;;;;;;;;;;17.06;64.95;97823.03;4967924;28;19976;-60
2022/06/26 03:20:11;;;;;;;;;;;;;;;17.05;64.75;97826.13;4977270;28;19957;-55
2022/06/26 03:22:41;;;;;;;;;;;;;;;17.09;64.71;97827.78;4983251;28;19933;-60
2022/06/26 03:25:09;;;;;;;;;;;;;;;17.22;64.12;97832.03;4967419;28;19926;-59
2022/06/26 03:27:39;;;;;;;;;;;;;;;17.14;64.20;97830.25;4968460;28;20400;-60
2022/06/26 03:30:08;;;;;;;;;;;;;;;17.06;64.65;97831.25;4984979;28;19977;-58
2022/06/26 03:32:36;;;;;;;;;;;;;;;17.08;64.44;97830.91;4983127;28;20416;-61
2022/06/26 03:35:09;;;;;;;;;;;;;;;17.08;64.47;97828.94;4972770;28;19930;-59
2022/06/26 03:37:39;;;;;;;;;;;;;;;16.93;64.82;97827.00;4965419;28;20271;-59
2022/06/26 03:40:08;;;;;;;;;;;;;;;16.89;65.00;97837.91;4969948;28;19926;-60
2022/06/26 03:42:38;;;;;;;;;;;;;;;16.96;64.52;97837.28;4971159;28;19930;-60
2022/06/26 03:45:06;;;;;;;;;;;;;;;16.86;65.17;97837.81;4968665;28;19925;-59
2022/06/26 03:47:35;;;;;;;;;;;;;;;16.87;64.91;97834.72;4987123;28;19925;-60
2022/06/26 03:50:03;;;;;;;;;;;;;;;16.91;65.03;97837.56;4982135;28;20308;-59
2022/06/26 03:52:34;;;;;;;;;;;;;;;16.75;65.35;97832.84;4985490;28;19934;-59
2022/06/26 03:55:09;;;;;;;;;;;;;;;16.75;65.54;97832.06;4980519;28;20020;-60
2022/06/26 03:57:39;;;;;;;;;;;;;;;16.81;65.21;97835.34;4986439;28;20449;-56
2022/06/26 04:00:09;;;;;;;;;;;;;;;16.87;65.00;97833.91;4982964;28;20382;-59
2022/06/26 04:02:43;;;;;;;;;;;;;;;16.55;65.91;97835.81;4983442;28;19934;-60
2022/06/26 04:05:17;;;;;;;;;;;;;;;16.57;66.15;97833.53;4969325;28;20422;-56
2022/06/26 04:07:46;;;;;;;;;;;;;;;16.68;65.84;97829.91;4976018;28;19937;-59
2022/06/26 04:10:36;;;;;;;;;;;;;;;16.93;64.85;97827.81;4984608;28;20644;-60
2022/06/26 04:13:12;;;;;;;;;;;;;;;16.86;65.07;97832.31;4961587;28;20778;-60
2022/06/26 04:15:42;;;;;;;;;;;;;;;16.82;65.16;97831.44;4962187;28;19930;-61
2022/06/26 04:18:11;;;;;;;;;;;;;;;16.78;65.67;97842.34;4970278;28;19926;-60
2022/06/26 04:20:41;;;;;;;;;;;;;;;17.01;64.62;97839.75;4979880;28;20014;-59
2022/06/26 04:23:09;;;;;;;;;;;;;;;16.99;64.91;97847.53;4968489;28;20000;-58
2022/06/26 04:25:40;;;;;;;;;;;;;;;17.11;64.38;97850.22;4980087;28;19926;-60
2022/06/26 04:28:09;;;;;;;;;;;;;;;16.55;66.61;97855.81;4986326;28;19926;-57
2022/06/26 04:30:40;;;;;;;;;;;;;;;16.50;66.71;97850.56;4984169;28;19933;-60
2022/06/26 04:33:34;;;;;;;;;;;;;;;16.71;66.14;97856.66;4981915;28;19930;-57
2022/06/26 04:36:08;;;;;;;;;;;;;;;16.79;65.78;97848.63;4984834;28;19992;-58
2022/06/26 04:38:38;;;;;;;;;;;;;;;16.82;65.86;97851.44;4966396;28;19956;-60
2022/06/26 04:43:56;;;;;;;;;;;;;;;17.06;65.32;97850.47;5001299;28;20357;-60
2022/06/26 04:46:25;;;;;;;;;;;;;;;17.13;65.20;97847.09;5001158;28;20420;-60
2022/06/26 04:48:56;;;;;;;;;;;;;;;17.19;65.01;97845.66;4980597;28;19926;-59
2022/06/26 04:51:25;;;;;;;;;;;;;;;17.33;64.56;97846.00;5000345;28;19925;-60
2022/06/26 04:53:55;;;;;;;;;;;;;;;17.41;64.56;97846.97;4984834;28;20212;-59
2022/06/26 04:56:25;;;;;;;;;;;;;;;17.47;64.56;97848.28;4989332;28;19933;-60
2022/06/26 04:59:18;;;;;;;;;;;;;;;17.54;64.01;97854.72;5005210;28;19932;-60
2022/06/26 05:04:47;;;;;;;;;;;;;;;17.86;63.62;97853.88;5001321;28;20374;-60
2022/06/26 05:08:00;;;;;;;;;;;;;;;17.98;63.49;97859.22;4982796;28;19926;-60
2022/06/26 05:10:29;;;;;;;;;;;;;;;18.08;62.86;97857.88;4982624;28;19936;-59
2022/06/26 05:12:59;;;;;;;;;;;;;;;18.05;62.32;97862.91;5000876;28;19926;-59
2022/06/26 05:15:49;;;;;;;;;;;;;;;18.12;62.09;97865.03;4999949;28;19946;-60
2022/06/26 05:18:18;;;;;;;;;;;;;;;18.28;62.36;97857.50;4998597;28;20027;-60
2022/06/26 05:20:46;;;;;;;;;;;;;;;18.41;61.84;97849.88;5003298;28;20578;-59
2022/06/26 05:23:14;;;;;;;;;;;;;;;18.44;61.61;97859.38;4984709;28;19929;-60
2022/06/26 05:25:53;;;;;;;;;;;;;;;18.58;61.25;97860.41;4999646;28;20016;-55
2022/06/26 05:28:22;;;;;;;;;;;;;;;18.56;61.70;97865.47;5001196;28;19926;-60
2022/06/26 05:30:50;;;;;;;;;;;;;;;18.86;60.75;97870.38;5000828;28;19984;-61
2022/06/26 05:33:18;;;;;;;;;;;;;;;19.00;59.94;97867.06;4982220;28;19984;-60
2022/06/26 05:35:47;;;;;;;;;;;;;;;19.00;60.43;97878.88;4982661;28;20020;-58
2022/06/26 05:38:22;;;;;;;;;;;;;;;19.19;59.86;97877.22;4984758;28;20337;-60
2022/06/26 05:40:51;;;;;;;;;;;;;;;19.45;58.72;97879.22;5000235;28;19930;-60
2022/06/26 05:43:22;;;;;;;;;;;;;;;19.39;58.95;97881.47;5002459;28;20007;-60
2022/06/26 05:45:51;;;;;;;;;;;;;;;19.42;59.43;97874.44;5000026;28;20020;-58
2022/06/26 05:48:46;;;;;;;;;;;;;;;19.44;59.04;97877.59;4982553;28;19926;-56
2022/06/26 05:51:40;;;;;;;;;;;;;;;19.56;59.19;97877.41;4998017;28;19979;-58
2022/06/26 05:54:37;;;;;;;;;;;;;;;19.62;59.20;97871.22;4973104;28;19929;-58
2022/06/26 05:57:08;;;;;;;;;;;;;;;19.85;58.88;97873.91;5002577;28;19926;-56
2022/06/26 06:00:25;;;;;;;;;;;;;;;19.92;58.58;97875.16;5001053;28;19929;-58
2022/06/26 06:02:57;;;;;;;;;;;;;;;19.64;59.18;97876.34;4994569;28;19925;-58
2022/06/26 06:05:26;;;;;;;;;;;;;;;19.98;58.21;97873.69;4988955;28;20293;-58
2022/06/26 06:07:54;;;;;;;;;;;;;;;20.03;58.24;97871.41;4998174;28;19929;-58
2022/06/26 06:10:23;;;;;;;;;;;;;;;20.06;58.49;97867.88;5001160;28;20340;-59
2022/06/26 06:12:53;;;;;;;;;;;;;;;20.09;57.90;97860.81;4998245;28;19925;-52
2022/06/26 06:15:42;;;;;;;;;;;;;;;20.18;58.48;97866.81;4983323;28;19929;-59
2022/06/26 06:18:12;;;;;;;;;;;;;;;20.33;57.63;97871.34;4967095;28;19929;-62
2022/06/26 06:20:42;;;;;;;;;;;;;;;20.35;57.46;97868.22;4998040;28;19932;-59
2022/06/26 06:23:37;;;;;;;;;;;;;;;20.46;57.72;97873.88;5000912;28;19926;-59
2022/06/26 06:26:07;;;;;;;;;;;;;;;20.53;57.51;97873.97;5002409;28;19930;-59
2022/06/26 06:28:36;;;;;;;;;;;;;;;20.63;57.26;97876.06;4994827;28;19934;-58
2022/06/26 06:31:04;;;;;;;;;;;;;;;20.66;57.31;97875.28;5002900;28;19933;-59
2022/06/26 06:33:36;;;;;;;;;;;;;;;20.77;56.86;97880.91;4995849;28;20027;-60
2022/06/26 06:36:08;;;;;;;;;;;;;;;20.93;56.73;97879.50;4981288;28;20315;-59
2022/06/26 06:38:38;;;;;;;;;;;;;;;21.22;56.16;97871.47;4999116;28;19929;-55
2022/06/26 06:41:09;;;;;;;;;;;;;;;21.36;55.48;97874.38;4979546;28;19926;-61
2022/06/26 06:43:52;;;;;;;;;;;;;;;21.42;55.05;97883.91;4987609;28;19995;-59
2022/06/26 06:46:23;;;;;;;;;;;;;;;21.43;55.46;97885.47;4985727;28;19929;-59
2022/06/26 06:49:02;;;;;;;;;;;;;;;21.58;54.70;97886.38;4980305;28;19934;-60
2022/06/26 06:51:32;;;;;;;;;;;;;;;21.76;54.58;97886.47;4966350;28;19990;-58
2022/06/26 06:54:02;;;;;;;;;;;;;;;21.89;54.09;97907.13;4983487;28;20402;-59
2022/06/26 06:56:55;;;;;;;;;;;;;;;21.87;53.94;97892.88;4989776;28;19973;-61
2022/06/26 06:59:23;;;;;;;;;;;;;;;21.94;53.94;97892.94;4984460;28;20020;-60
2022/06/26 07:04:47;;;;;;;;;;;;;;;22.27;53.58;97896.66;4966810;28;19937;-59
2022/06/26 07:07:19;;;;;;;;;;;;;;;22.30;53.59;97897.84;4966228;28;20390;-56
2022/06/26 07:09:51;;;;;;;;;;;;;;;22.41;53.24;97899.47;4976547;28;19941;-58
2022/06/26 07:12:22;;;;;;;;;;;;;;;22.51;52.42;97902.69;4984794;28;19930;-59
2022/06/26 07:14:51;;;;;;;;;;;;;;;22.47;51.61;97897.13;4980486;28;20350;-59
2022/06/26 07:17:21;;;;;;;;;;;;;;;22.57;51.86;97904.66;4982627;28;19937;-59
2022/06/26 07:19:56;;;;;;;;;;;;;;;22.77;51.34;97902.34;4951905;28;20351;-58
2022/06/26 07:22:25;;;;;;;;;;;;;;;22.64;51.38;97899.16;4968895;28;19937;-58
2022/06/26 07:25:14;;;;;;;;;;;;;;;22.83;51.14;97900.00;4981171;28;19930;-57
2022/06/26 07:27:50;;;;;;;;;;;;;;;22.99;50.78;97894.91;4986869;28;19934;-59
2022/06/26 07:30:20;;;;;;;;;;;;;;;22.92;50.15;97890.16;4984440;28;20005;-59
2022/06/26 07:32:57;;;;;;;;;;;;;;;23.07;49.96;97892.94;4985542;28;20346;-59
2022/06/26 07:35:27;;;;;;;;;;;;;;;23.24;49.62;97892.16;4990651;28;19929;-59
2022/06/26 07:37:56;;;;;;;;;;;;;;;23.31;49.15;97888.59;4968367;28;20372;-58
2022/06/26 07:40:26;;;;;;;;;;;;;;;23.50;48.62;97886.22;4968859;28;20060;-55
2022/06/26 07:42:57;;;;;;;;;;;;;;;23.56;48.91;97891.34;5001286;28;19993;-58
2022/06/26 07:45:30;;;;;;;;;;;;;;;23.62;47.04;97881.44;4997086;28;19937;-57
2022/06/26 07:48:04;;;;;;;;;;;;;;;23.58;47.85;97886.19;4972577;28;19944;-61
2022/06/26 07:50:37;;;;;;;;;;;;;;;23.66;48.40;97893.34;4969003;28;19957;-59
2022/06/26 07:53:07;;;;;;;;;;;;;;;23.72;47.91;97891.75;4985581;28;19980;-58
2022/06/26 07:55:35;;;;;;;;;;;;;;;23.61;48.70;97885.41;4986122;28;19925;-59
2022/06/26 07:58:08;;;;;;;;;;;;;;;23.63;48.09;97897.69;4985213;28;20024;-60
2022/06/26 08:00:36;;;;;;;;;;;;;;;23.86;47.34;97891.72;4986959;28;20382;-61
2022/06/26 08:03:05;;;;;;;;;;;;;;;23.94;47.03;97887.75;4986507;28;20074;-60
2022/06/26 08:05:33;;;;;;;;;;;;;;;23.90;46.25;97895.28;4985320;28;20595;-60
2022/06/26 08:08:03;;;;;;;;;;;;;;;23.85;46.95;97889.34;5000554;28;19980;-58
2022/06/26 08:10:35;;;;;;;;;;;;;;;23.90;47.45;97892.50;4987366;28;20016;-59
2022/06/26 08:13:03;;;;;;;;;;;;;;;24.29;46.49;97888.81;4986296;28;19934;-60
2022/06/26 08:15:31;;;;;;;;;;;;;;;24.22;46.04;97884.06;4986836;28;20408;-60
2022/06/26 08:18:24;;;;;;;;;;;;;;;24.30;46.02;97882.88;4985607;28;20071;-59
2022/06/26 08:20:53;;;;;;;;;;;;;;;24.38;47.08;97883.63;4987912;28;19926;-60
2022/06/26 08:23:23;;;;;;;;;;;;;;;24.44;46.74;97873.69;4986246;28;20022;-60
2022/06/26 08:26:17;;;;;;;;;;;;;;;24.53;46.23;97874.03;4984900;28;20330;-59
2022/06/26 08:28:45;;;;;;;;;;;;;;;24.70;45.44;97872.38;4984697;28;19932;-60
2022/06/26 08:31:14;;;;;;;;;;;;;;;24.59;45.81;97870.84;4987320;28;19975;-59
2022/06/26 08:33:42;;;;;;;;;;;;;;;24.70;45.32;97866.00;4985737;28;19933;-58
2022/06/26 08:36:10;;;;;;;;;;;;;;;24.63;44.79;97866.84;4986243;28;20436;-55
2022/06/26 08:39:04;;;;;;;;;;;;;;;24.79;44.03;97875.50;4968158;28;19949;-60
2022/06/26 08:41:34;;;;;;;;;;;;;;;24.96;43.82;97867.44;4984821;28;19930;-60
2022/06/26 08:44:02;;;;;;;;;;;;;;;24.90;43.92;97872.63;4986615;28;19932;-60
2022/06/26 08:46:31;;;;;;;;;;;;;;;24.94;43.60;97864.28;4988499;28;19937;-61
2022/06/26 08:49:00;;;;;;;;;;;;;;;24.86;43.69;97863.53;4986267;28;19938;-60
2022/06/26 08:51:28;;;;;;;;;;;;;;;24.96;43.86;97862.66;4986166;28;20425;-58
2022/06/26 08:53:56;;;;;;;;;;;;;;;25.05;43.36;97857.44;4986484;28;19933;-58
2022/06/26 08:56:26;;;;;;;;;;;;;;;25.11;43.06;97852.28;4985293;28;20250;-59
2022/06/26 08:59:19;;;;;;;;;;;;;;;25.10;42.95;97852.69;4984646;28;19936;-63
2022/06/26 09:02:13;;;;;;;;;;;;;;;25.28;42.90;97850.53;4988016;28;19930;-61
2022/06/26 09:04:41;;;;;;;;;;;;;;;25.23;43.22;97857.31;4985069;28;19926;-62
2022/06/26 09:07:09;;;;;;;;;;;;;;;25.64;41.64;97861.34;4985517;28;20571;-54
2022/06/26 09:09:38;;;;;;;;;;;;;;;25.61;42.81;97862.94;4982892;28;20294;-59
2022/06/26 09:12:09;;;;;;;;;;;;;;;25.44;42.37;97859.13;4969472;28;20906;-59
2022/06/26 09:14:37;;;;;;;18.70;11.50;;;;;;;25.49;41.19;97850.34;4985533;28;19940;-61
2022/06/26 09:19:58;;;;;;;2.40;1.10;;;;;;;25.96;40.42;97850.69;4985298;28;20509;-59
2022/06/26 09:22:27;;;;;;;1.92;1.08;;;;;;;26.01;38.83;97858.56;4980816;28;20428;-60
2022/06/26 09:24:58;;;;;;;2.05;1.08;;;;;;;25.91;39.13;97853.91;4964777;28;20454;-58
2022/06/26 09:27:28;;;;;;;;;;;;;;;26.18;39.23;97850.44;4981557;28;20134;-60
2022/06/26 09:30:22;;;;;;;;;;;;;;;25.93;39.75;97851.50;4986118;28;20356;-59
2022/06/26 09:32:53;;;;;;;;;;;;;;;26.03;39.94;97850.59;4985616;28;19937;-60
2022/06/26 09:35:22;;;;;;;;;;;;;;;26.00;40.09;97848.66;4985975;28;19921;-59
2022/06/26 09:37:51;;;;;;;;;;;;;;;26.19;39.84;97849.22;4983143;28;19937;-60
2022/06/26 09:40:27;;;;;;;;;;;;;;;26.12;40.25;97842.53;4985954;28;20212;-59
2022/06/26 09:42:58;;;;;;;;;;;;;;;26.07;39.75;97850.56;4984414;28;19922;-59
2022/06/26 09:45:26;;;;;;;;;;;;;;;26.17;39.42;97848.84;4987632;28;20060;-60
2022/06/26 09:47:55;;;;;;;;;;;;;;;25.85;40.19;97850.81;4987146;28;19932;-60
2022/06/26 09:50:23;;;;;;;3.28;0.75;;;;;;;25.80;40.17;97848.47;4989872;28;19965;-50
2022/06/26 09:52:52;;;;;;;2.67;1.00;;;;;;;25.97;39.67;97846.69;4986075;28;20416;-60
2022/06/26 09:55:21;;;;;;;2.60;0.90;;;;;;;25.92;39.28;97852.72;4983835;28;20528;-59
2022/06/26 09:57:50;;;;;;;1.90;0.75;;;;;;;26.25;39.01;97850.31;4985944;28;20463;-59
2022/06/26 10:00:20;;;;;;;2.75;1.10;;;;;;;26.43;39.15;97850.16;4984243;28;20434;-59
2022/06/26 10:08:20;;;;;;;;;;;;;;;26.60;37.80;97849.91;4987364;28;20031;-56
2022/06/26 10:10:50;;;;;;;;;;;;;;;26.52;37.87;97848.41;4988595;28;20312;-55
2022/06/26 10:13:24;;;;;;;;;;;;;;;26.50;37.88;97844.47;4981801;28;19940;-60
2022/06/26 10:15:54;;;;;;;;;;;;;;;26.52;37.12;97853.97;4986698;28;19921;-60
2022/06/26 10:18:32;;;;;;;;;;;;;;;26.69;37.72;97851.38;4986124;28;20060;-49
2022/06/26 10:21:09;;;;;;;;;;;;;;;26.87;36.65;97849.09;4984858;28;19921;-60
2022/06/26 10:23:37;;;;;;;;;;;;;;;26.89;36.37;97850.25;4983350;28;19930;-60
2022/06/26 10:26:13;;;;;;;;;;;;;;;26.94;35.80;97842.63;4985316;28;19922;-59
2022/06/26 10:28:57;;;;;;;;;;;;;;;27.02;35.61;97839.31;4984920;28;19922;-60
2022/06/26 10:31:28;;;;;;;;;;;;;;;27.22;35.92;97846.97;4984287;28;19941;-60
2022/06/26 10:33:56;;;;;;;;;;;;;;;26.94;35.60;97831.47;4985886;28;20009;-59
2022/06/26 10:36:24;;;;;;;;;;;;;;;26.66;35.64;97836.28;4980158;28;20362;-59
2022/06/26 10:38:53;;;;;;;;;;;;;;;26.82;37.26;97830.84;4983527;28;20019;-49
2022/06/26 10:44:08;;;;;;;;;;;;;;;26.59;36.30;97825.25;4982086;28;19925;-59
2022/06/26 10:46:39;;;;;;;;;;;;;;;26.67;35.45;97831.50;4983675;28;20297;-61
2022/06/26 10:49:08;;;;;;;;;;;;;;;26.72;36.41;97811.50;4986048;28;19922;-59
2022/06/26 10:51:39;;;;;;;;;;;;;;;26.78;36.66;97812.59;4987937;28;19925;-60
2022/06/26 10:54:17;;;;;;;;;;;;;;;27.03;35.00;97818.59;4988524;28;20413;-53
2022/06/26 10:56:46;;;;;;;;;;;;;;;27.29;34.92;97822.56;4986667;28;19921;-60
2022/06/26 10:59:18;;;;;;;;;;;;;;;27.37;35.94;97826.00;4986766;28;19953;-60
2022/06/26 11:02:11;;;;;;;;;;;;;;;27.23;34.88;97815.13;4970842;28;19961;-61
2022/06/26 11:04:47;;;;;;;;;;;;;;;27.17;35.87;97816.81;4987268;28;19928;-61
2022/06/26 11:07:15;;;;;;;;;;;;;;;27.15;35.66;97809.63;4986607;28;19948;-60
2022/06/26 11:09:44;;;;;;;;;;;;;;;27.06;37.06;97812.16;4986974;28;19930;-60
2022/06/26 11:12:12;;;;;;;;;;;;;;;27.23;36.08;97812.31;4988637;28;19922;-60
2022/06/26 11:14:40;;;;;;;;;;;;;;;27.30;35.66;97806.59;4987509;28;19937;-58
2022/06/26 11:17:14;;;;;;;;;;;;;;;27.39;34.67;97802.06;4985219;28;20358;-60
2022/06/26 11:22:34;;;;;;;;;;;;;;;27.54;34.55;97805.38;4944211;28;20349;-60
2022/06/26 11:25:02;;;;;;;;;;;;;;;26.81;35.78;97800.63;4986056;28;19975;-60
2022/06/26 11:27:30;;;;;;;;;;;;;;;26.78;35.97;97798.66;4989340;28;19937;-59
2022/06/26 11:30:23;;;;;;;;;;;;;;;27.00;36.00;97799.91;4987296;28;19922;-59
2022/06/26 11:32:50;;;;;;;;;;;;;;;27.35;35.74;97797.75;4987327;28;19925;-60
2022/06/26 11:35:26;;;;;;;;;;;;;;;28.13;33.83;97793.47;4970519;28;19926;-59
2022/06/26 11:37:54;;;;;;;;;;;;;;;28.20;34.82;97806.50;4988063;28;19926;-59
2022/06/26 11:40:23;;;;;;;;;;;;;;;27.99;33.48;97790.19;4985339;28;20295;-59
2022/06/26 11:42:54;;;;;;;;;;;;;;;28.08;33.20;97788.38;4989195;28;19972;-54
2022/06/26 11:45:30;;;;;;;;;;;;;;;28.10;33.69;97790.75;4982615;28;20413;-55
2022/06/26 11:47:59;;;;;;;;;;;;;;;28.06;33.23;97796.41;4986720;28;20623;-55
2022/06/26 11:50:33;;;;;;;;;;;;;;;28.11;33.87;97792.31;4984574;28;20005;-61
2022/06/26 11:53:02;;;;;;;;;;;;;;;28.00;33.85;97795.31;4987128;28;19991;-59
2022/06/26 11:55:31;;;;;;;;;;;;;;;28.13;32.94;97785.09;4983721;28;19929;-60
2022/06/26 11:58:01;;;;;;;;;;;;;;;27.87;34.04;97786.81;4985158;28;20029;-60
2022/06/26 12:00:30;;;;;;;;;;;;;;;28.09;34.62;97786.38;4986874;28;19925;-60
2022/06/26 12:02:58;;;;;;;;;;;;;;;28.22;33.83;97787.28;4984134;28;19968;-60
2022/06/26 12:05:28;;;;;;;;;;;;;;;28.32;32.98;97785.47;4985518;28;19959;-59
2022/06/26 12:07:57;;;;;;;;;;;;;;;28.31;33.55;97784.69;4984231;28;20013;-60
2022/06/26 12:10:26;;;;;;;;;;;;;;;28.32;33.13;97774.31;4985929;28;20292;-59
2022/06/26 12:12:55;;;;;;;;;;;;;;;28.44;33.27;97770.84;4985580;28;19989;-59
2022/06/26 12:15:29;;;;;;;;;;;;;;;28.43;32.47;97781.25;4966851;28;20028;-60
2022/06/26 12:17:58;;;;;;;;;;;;;;;28.60;32.10;97776.47;4984042;28;20430;-60
2022/06/26 12:20:28;;;;;;;;;;;;;;;28.52;31.63;97775.06;4985291;28;19921;-58
2022/06/26 12:22:56;;;;;;;;;;;;;;;28.63;33.66;97772.81;4986154;28;19922;-60
2022/06/26 12:25:25;;;;;;;;;;;;;;;28.80;33.45;97765.22;4969287;28;19930;-60
2022/06/26 12:27:56;;;;;;;;;;;;;;;29.28;32.51;97782.44;4987868;28;19921;-60
2022/06/26 12:30:26;;;;;;;;;;;;;;;28.87;33.76;97767.88;4988484;28;19987;-59
2022/06/26 12:32:56;;;;;;;;;;;;;;;28.52;34.04;97769.50;4986809;28;20004;-59
2022/06/26 12:35:25;;;;;;;;;;;;;;;28.39;33.73;97771.38;4984313;28;19930;-59
2022/06/26 12:37:55;;;;;;;;;;;;;;;28.30;33.12;97765.59;4984861;28;19922;-56
2022/06/26 12:40:24;;;;;;;;;;;;;;;27.83;34.75;97760.97;4987247;28;19968;-59
2022/06/26 12:42:52;;;;;;;;;;;;;;;27.92;34.87;97768.78;4955076;28;20305;-60
2022/06/26 12:45:23;;;;;;;;;;;;;;;28.22;33.41;97759.34;4971221;28;19949;-50
2022/06/26 12:47:51;;;;;;;;;;;;;;;28.32;32.93;97755.53;4988296;28;19925;-60
2022/06/26 12:50:20;;;;;;;;;;;;;;;28.33;32.49;97759.13;4988912;28;19922;-59
2022/06/26 12:52:48;;;;;;;;;;;;;;;28.32;32.27;97746.38;4990523;28;19968;-58
2022/06/26 12:55:17;;;;;;;;;;;;;;;28.39;31.99;97746.22;4986454;28;19922;-59
2022/06/26 12:57:46;;;;;;;;;;;;;;;28.42;32.59;97748.94;4985465;28;19922;-53
2022/06/26 13:00:14;;;;;;;;;;;;;;;28.31;32.87;97733.63;4987449;28;20258;-59
2022/06/26 13:02:42;;;;;;;;;;;;;;;28.55;32.49;97746.28;4984407;28;20215;-59
2022/06/26 13:05:11;;;;;;;;;;;;;;;28.74;32.55;97744.59;4988436;28;19921;-56
2022/06/26 13:07:39;;;;;;;;;;;;;;;28.75;32.45;97739.78;4988933;28;19932;-55
2022/06/26 13:10:09;;;;;;;;;;;;;;;28.79;31.35;97740.50;4985640;28;19925;-58
2022/06/26 13:12:38;;;;;;;;;;;;;;;28.67;32.54;97744.78;4965561;28;20073;-59
2022/06/26 13:15:12;;;;;;;;;;;;;;;28.75;32.10;97737.78;4986679;28;19974;-59
2022/06/26 13:17:40;;;;;;;;;;;;;;;28.68;33.71;97735.16;4985139;28;19925;-59
2022/06/26 13:20:09;;;;;;;;;;;;;;;28.92;33.10;97738.56;4989524;28;19930;-60
2022/06/26 13:22:37;;;;;;;;;;;;;;;28.95;32.58;97738.50;4986777;28;19930;-59
2022/06/26 13:25:06;;;;;;;;;;;;;;;29.10;32.78;97738.94;4984319;28;20390;-59
2022/06/26 13:27:41;;;;;;;;;;;;;;;28.87;31.34;97736.28;4967720;28;19921;-58
2022/06/26 13:30:11;;;;;;;;;;;;;;;28.90;32.43;97735.44;4983401;28;19975;-54
2022/06/26 13:32:39;;;;;;;;;;;;;;;28.92;32.14;97727.38;4985478;28;20309;-60
2022/06/26 13:35:40;;;;;;;;;;;;;;;28.85;32.73;97724.78;5146356;27;19914;-61
2022/06/26 13:38:09;;;;;;;;;;;;;;;29.03;31.81;97729.94;5133538;27;20006;-61
2022/06/26 13:40:37;;;;;;;;;;;;;;;29.13;30.75;97726.84;5128425;27;20003;-61
2022/06/26 13:43:05;;;;;;;;;;;;;;;29.14;31.12;97731.25;5129595;27;19926;-60